Time;durP1;ratioP1;P1;durP2;ratioP2;P2;SDS_P1;SDS_P2;PMS_P1;PMS_P2;Temp;Humidity;BMP_temperature;BMP_pressure;BME280_temperature;BME280_humidity;BME280_pressure;Samples;Min_cycle;Max_cycle;Signal;HPM_P1;HPM_P2
2021/06/14 05:06:20;;;;;;;;;8.00;6.25;;;;;18.15;59.33;101952.28;5228957;23;45477;-66
2021/06/14 05:08:45;;;;;;;;;7.25;7.25;;;;;18.15;59.28;101960.25;4985342;28;45805;-66
2021/06/14 05:11:10;;;;;;;;;7.75;7.00;;;;;18.18;59.70;101968.13;4970315;28;45486;-66
2021/06/14 05:13:36;;;;;;;;;10.75;7.25;;;;;18.18;59.86;101962.78;4968544;28;46790;-67
2021/06/14 05:16:01;;;;;;;;;7.00;6.75;;;;;18.23;59.55;101975.91;4970755;28;45463;-67
2021/06/14 05:18:26;;;;;;;;;8.00;8.00;;;;;18.25;59.74;101967.88;4978915;28;45637;-66
2021/06/14 05:20:52;;;;;;;;;12.00;10.25;;;;;18.28;59.70;101971.25;4977695;28;45309;-67
2021/06/14 05:23:17;;;;;;;;;10.00;9.50;;;;;18.34;60.01;101978.09;4982118;28;48174;-67
2021/06/14 05:25:42;;;;;;;;;9.25;8.25;;;;;18.37;58.16;101983.25;4977487;28;45828;-67
2021/06/14 05:28:08;;;;;;;;;9.25;9.25;;;;;18.42;58.81;101978.59;4976249;28;45317;-67
2021/06/14 05:30:34;;;;;;;;;10.50;8.75;;;;;18.49;58.23;101980.97;4988808;28;45239;-69
2021/06/14 05:32:59;;;;;;;;;9.50;7.75;;;;;18.56;58.29;101982.41;4984189;28;46695;-69
2021/06/14 05:35:25;;;;;;;;;10.25;8.25;;;;;18.62;58.11;101986.59;4975651;28;45399;-69
2021/06/14 05:37:51;;;;;;;;;10.25;7.00;;;;;18.69;57.36;101981.81;4980390;28;45289;-69
2021/06/14 05:40:17;;;;;;;;;6.00;5.25;;;;;18.78;58.09;101990.25;4980756;28;45419;-69
2021/06/14 05:42:43;;;;;;;;;6.50;6.50;;;;;18.85;56.36;101972.16;4970677;28;45333;-69
2021/06/14 05:45:09;;;;;;;;;8.50;6.50;;;;;18.97;55.96;101975.16;4976326;28;45474;-70
2021/06/14 05:47:35;;;;;;;;;7.25;7.25;;;;;19.08;56.58;101970.16;4982396;28;45576;-70
2021/06/14 05:50:03;;;;;;;;;8.75;8.75;;;;;19.20;55.02;101975.84;4979364;28;45502;-70
2021/06/14 05:52:29;;;;;;;;;12.25;10.25;;;;;19.31;54.43;101967.31;4978375;28;46152;-70
2021/06/14 05:54:54;;;;;;;;;10.50;9.00;;;;;19.45;54.20;101964.81;4975251;28;45234;-70
2021/06/14 05:57:20;;;;;;;;;3.00;3.00;;;;;19.59;53.81;101967.69;4989064;28;45213;-70
2021/06/14 05:59:45;;;;;;;;;10.75;9.50;;;;;19.70;53.87;101961.78;4980760;28;45417;-67
2021/06/14 06:02:10;;;;;;;;;13.00;10.25;;;;;19.82;52.88;101965.63;4979777;28;45347;-67
2021/06/14 06:04:36;;;;;;;;;8.75;8.75;;;;;19.93;52.71;101973.91;4965544;28;45380;-67
2021/06/14 06:07:02;;;;;;;;;13.50;10.00;;;;;20.04;52.77;101972.47;4974713;28;45471;-67
2021/06/14 06:09:27;;;;;;;;;9.25;8.50;;;;;20.15;51.94;101972.78;4970355;28;45646;-67
2021/06/14 06:11:53;;;;;;;;;6.75;6.75;;;;;20.22;52.04;101974.16;4973397;28;45398;-67
2021/06/14 06:14:18;;;;;;;;;10.75;10.00;;;;;20.32;51.93;101982.53;4991749;28;45494;-67
2021/06/14 06:16:44;;;;;;;;;10.50;8.00;;;;;20.42;51.08;101985.53;4980288;28;45311;-67
2021/06/14 06:19:09;;;;;;;;;8.25;8.25;;;;;20.51;50.02;101983.31;4978577;28;45568;-67
2021/06/14 06:21:35;;;;;;;;;10.75;10.00;;;;;20.58;50.29;101984.69;4977437;28;47237;-67
2021/06/14 06:24:00;;;;;;;;;9.00;8.00;;;;;20.67;50.43;101977.97;4976801;28;45396;-67
2021/06/14 06:26:26;;;;;;;;;7.75;7.25;;;;;20.77;50.33;101986.31;4978954;28;45369;-65
2021/06/14 06:28:51;;;;;;;;;8.25;8.25;;;;;20.87;49.90;101987.53;4988380;28;45440;-65
2021/06/14 06:31:17;;;;;;;;;9.50;8.75;;;;;20.94;49.66;101976.50;4998067;28;46097;-65
2021/06/14 06:33:43;;;;;;;;;9.25;7.75;;;;;20.98;49.25;101965.53;4976865;28;45473;-65
2021/06/14 06:36:12;;;;;;;;;8.75;8.75;;;;;21.05;48.80;101966.06;4974358;28;46200;-65
2021/06/14 06:38:38;;;;;;;;;8.00;6.50;;;;;21.08;48.29;101965.03;4967920;28;45298;-65
2021/06/14 06:41:04;;;;;;;;;10.75;10.75;;;;;21.11;48.94;101964.84;4978759;28;46202;-67
2021/06/14 06:43:30;;;;;;;;;8.25;8.25;;;;;21.14;48.23;101962.84;4966280;28;45439;-67
2021/06/14 06:45:55;;;;;;;;;9.00;9.00;;;;;21.20;48.39;101969.66;4983004;28;45970;-67
2021/06/14 06:48:20;;;;;;;;;12.00;10.25;;;;;21.24;47.92;101967.66;4976050;28;45554;-67
2021/06/14 06:50:46;;;;;;;;;11.75;10.50;;;;;21.26;48.28;101957.72;4973592;28;45606;-67
2021/06/14 06:53:11;;;;;;;;;16.00;10.50;;;;;21.31;47.69;101960.97;4971585;28;45313;-67
2021/06/14 06:55:37;;;;;;;;;7.50;7.50;;;;;21.36;47.45;101956.22;4974448;28;45364;-67
2021/06/14 06:58:03;;;;;;;;;7.75;6.50;;;;;21.42;48.09;101956.81;4985046;28;45287;-67
2021/06/14 07:00:29;;;;;;;;;9.50;9.00;;;;;21.47;47.38;101960.06;4980773;28;45300;-67
2021/06/14 07:02:55;;;;;;;;;11.00;9.25;;;;;21.50;46.89;101959.88;4972176;28;45453;-67
2021/06/14 07:05:20;;;;;;;;;9.00;7.50;;;;;21.53;47.05;101953.50;4971449;28;45542;-67
2021/06/14 07:07:45;;;;;;;;;9.25;9.25;;;;;21.54;46.34;101956.06;4971473;28;47008;-67
2021/06/14 07:10:11;;;;;;;;;9.25;8.25;;;;;21.60;46.47;101965.53;4975680;28;46410;-67
2021/06/14 07:12:37;;;;;;;;;9.75;8.25;;;;;21.66;46.34;101954.44;4973528;28;45301;-67
2021/06/14 07:15:11;;;;;;;;;7.00;7.00;;;;;21.70;46.58;101952.47;4990128;28;45440;-65
2021/06/14 07:17:39;;;;;;;;;11.00;8.00;;;;;21.77;45.35;101952.94;4975398;28;45229;-65
2021/06/14 07:20:06;;;;;;;;;9.00;8.00;;;;;21.80;45.54;101955.44;4971235;28;45387;-65
2021/06/14 07:22:32;;;;;;;;;9.50;8.00;;;;;21.87;44.94;101953.25;4976563;28;45483;-64
2021/06/14 07:24:57;;;;;;;;;8.25;6.75;;;;;21.91;44.59;101946.75;4974546;28;45418;-67
2021/06/14 07:27:22;;;;;;;;;7.00;6.75;;;;;21.96;44.64;101947.31;4967351;28;45335;-67
2021/06/14 07:29:48;;;;;;;;;8.50;7.25;;;;;21.99;45.04;101943.59;4981269;28;46097;-67
2021/06/14 07:32:14;;;;;;;;;9.25;7.50;;;;;22.01;45.24;101945.22;4970513;28;45463;-67
2021/06/14 07:34:40;;;;;;;;;9.00;7.25;;;;;22.05;45.57;101945.88;4978374;28;45568;-67
2021/06/14 07:37:05;;;;;;;;;7.00;6.50;;;;;22.08;45.37;101947.50;4977085;28;45384;-65
2021/06/14 07:39:30;;;;;;;;;7.00;7.00;;;;;22.09;44.65;101946.56;4982383;28;45161;-65
2021/06/14 07:41:56;;;;;;;;;6.50;6.50;;;;;22.13;45.58;101950.75;4982579;28;45253;-67
2021/06/14 07:44:21;;;;;;;;;10.00;7.00;;;;;22.18;45.42;101945.97;4984633;28;46790;-67
2021/06/14 07:46:46;;;;;;;;;7.75;5.00;;;;;22.23;45.44;101938.50;4981833;28;45341;-67
2021/06/14 07:49:12;;;;;;;;;7.25;7.25;;;;;22.30;44.40;101943.47;4971713;28;47175;-67
2021/06/14 07:51:37;;;;;;;;;8.75;8.00;;;;;22.34;44.57;101936.97;4981190;28;45201;-67
2021/06/14 07:54:03;;;;;;;;;8.25;7.50;;;;;22.36;44.39;101935.91;4981405;28;45278;-67
2021/06/14 07:56:28;;;;;;;;;9.25;5.75;;;;;22.39;44.54;101933.97;4977144;28;45134;-67
2021/06/14 07:58:53;;;;;;;;;8.25;8.25;;;;;22.43;44.43;101922.97;4975286;28;45347;-67
2021/06/14 08:01:19;;;;;;;;;7.50;6.75;;;;;22.49;43.20;101930.59;4977927;28;45269;-67
2021/06/14 08:03:48;;;;;;;;;14.50;10.50;;;;;22.56;43.75;101932.88;4977915;28;45544;-67
2021/06/14 08:06:13;;;;;;;;;8.50;7.75;;;;;22.63;44.01;101927.97;4981499;28;45300;-67
2021/06/14 08:08:38;;;;;;;;;4.00;4.00;;;;;22.69;42.91;101925.75;4981966;28;45663;-66
2021/06/14 08:11:07;;;;;;;;;8.00;8.00;;;;;22.73;43.38;101929.13;4974290;28;45384;-65
2021/06/14 08:13:32;;;;;;;;;9.25;8.00;;;;;22.78;43.80;101924.31;4984564;28;45244;-65
2021/06/14 08:15:59;;;;;;;;;8.25;7.25;;;;;22.85;43.64;101924.75;4983397;28;45281;-64
2021/06/14 08:18:39;;;;;;;;;7.50;7.00;;;;;22.92;43.44;101915.34;4977541;28;45408;-64
2021/06/14 08:21:26;;;;;;;;;6.75;6.75;;;;;22.95;43.47;101914.28;4981006;28;45581;-65
2021/06/14 08:26:36;;;;;;;;;12.00;8.75;;;;;23.04;42.89;101919.00;4981769;28;45246;-65
2021/06/14 08:29:02;;;;;;;;;5.00;5.00;;;;;23.14;43.05;101915.69;4966022;28;45760;-65
2021/06/14 08:31:31;;;;;;;;;8.25;8.25;;;;;23.22;42.20;101915.16;4976410;28;45424;-65
2021/06/14 08:33:56;;;;;;;;;10.25;9.00;;;;;23.29;42.92;101911.09;4978209;28;45328;-64
2021/06/14 08:36:23;;;;;;;;;8.50;7.50;;;;;23.32;43.17;101905.53;4978974;28;45700;-65
2021/06/14 08:38:48;;;;;;;;;7.25;7.25;;;;;23.37;42.94;101908.75;4974144;28;45495;-65
2021/06/14 08:41:23;;;;;;;;;9.00;7.50;;;;;23.31;43.11;101897.59;4975521;28;45409;-65
2021/06/14 08:43:50;;;;;;;;;11.50;7.25;;;;;23.32;42.46;101899.28;4969090;28;45364;-65
2021/06/14 08:46:17;;;;;;;;;9.25;6.50;;;;;23.33;42.89;101901.91;4976563;28;45598;-65
2021/06/14 08:48:43;;;;;;;;;8.00;8.00;;;;;23.36;43.01;101895.47;4983560;28;45396;-64
2021/06/14 08:51:10;;;;;;;;;9.75;9.00;;;;;23.42;41.72;101899.50;4979649;28;45399;-65
2021/06/14 08:53:37;;;;;;;;;3.25;3.00;;;;;23.55;41.73;101902.25;4975432;28;45458;-65
2021/06/14 08:56:04;;;;;;;;;8.50;6.50;;;;;23.64;42.58;101895.34;4973256;28;45473;-65
2021/06/14 08:58:31;;;;;;;;;11.50;8.75;;;;;23.64;42.19;101900.72;4979455;28;45400;-65
2021/06/14 09:00:58;;;;;;;;;8.25;8.00;;;;;23.63;40.99;101890.97;4978735;28;45524;-65
2021/06/14 09:03:27;;;;;;;;;6.75;6.00;;;;;23.71;41.41;101884.06;4977298;28;45436;-65
2021/06/14 09:05:53;;;;;;;;;9.00;7.25;;;;;23.75;41.97;101882.03;4977519;28;45550;-65
2021/06/14 09:08:24;;;;;;;;;9.50;9.50;;;;;23.78;41.54;101883.66;4976213;28;45657;-65
2021/06/14 09:10:52;;;;;;;;;7.00;6.75;;;;;23.87;41.04;101874.06;4970674;28;45703;-65
2021/06/14 09:13:19;;;;;;;;;9.50;8.00;;;;;23.88;41.46;101868.56;4973668;28;45464;-64
2021/06/14 09:15:47;;;;;;;;;8.25;8.25;;;;;23.85;40.63;101862.59;4975791;28;46435;-64
2021/06/14 09:18:16;;;;;;;;;8.25;7.25;;;;;23.94;40.48;101864.59;4973417;28;45455;-65
2021/06/14 09:20:55;;;;;;;;;9.25;9.25;;;;;24.00;40.09;101869.50;4974915;28;45324;-65
2021/06/14 09:23:20;;;;;;;;;7.25;7.25;;;;;24.06;40.77;101862.84;4973251;28;45264;-64
2021/06/14 09:25:47;;;;;;;;;7.50;6.50;;;;;23.94;40.90;101848.47;4967752;28;45533;-65
2021/06/14 09:28:13;;;;;;;;;7.50;7.00;;;;;23.93;40.40;101861.03;4978590;28;45282;-65
2021/06/14 09:30:39;;;;;;;;;7.00;6.75;;;;;24.02;40.38;101861.34;4978378;28;45459;-65
2021/06/14 09:33:06;;;;;;;;;9.75;9.00;;;;;24.14;39.85;101862.28;4979799;28;45371;-64
2021/06/14 09:35:37;;;;;;;;;9.00;7.50;;;;;24.35;38.13;101861.66;4965636;28;46347;-65
2021/06/14 09:38:13;;;;;;;;;7.25;5.75;;;;;24.53;38.73;101856.75;4971985;28;46285;-64
2021/06/14 09:40:42;;;;;;;;;8.00;8.00;;;;;24.65;39.05;101854.09;4979389;28;45367;-65
2021/06/14 09:43:22;;;;;;;;;1.00;0.00;;;;;24.73;38.64;101857.94;4971495;28;45679;-64
2021/06/14 09:45:48;;;;;;;;;6.75;6.00;;;;;24.88;37.78;101865.78;4971965;28;45467;-64
2021/06/14 09:48:22;;;;;;;;;8.00;7.25;;;;;24.93;38.40;101849.31;4977864;28;45403;-64
2021/06/14 09:50:49;;;;;;;;;6.00;6.00;;;;;24.97;36.54;101853.47;4979233;28;45753;-64
2021/06/14 09:53:18;;;;;;;;;5.25;4.75;;;;;24.95;37.08;101856.28;4979577;28;45390;-64
2021/06/14 09:55:45;;;;;;;;;6.00;6.00;;;;;24.99;36.72;101858.75;4978329;28;45412;-64
2021/06/14 09:58:10;;;;;;;;;5.75;5.75;;;;;25.09;37.09;101857.06;4972303;28;45779;-65
2021/06/14 10:00:36;;;;;;;;;7.00;6.25;;;;;25.16;35.98;101860.97;4972252;28;45269;-64
2021/06/14 10:03:01;;;;;;;;;7.25;6.50;;;;;25.29;35.41;101855.50;4979092;28;45223;-65
2021/06/14 10:05:26;;;;;;;;;6.75;6.75;;;;;25.42;34.80;101864.41;4977375;28;45355;-65
2021/06/14 10:07:54;;;;;;;;;6.00;5.25;;;;;25.51;35.53;101861.00;4971153;28;45308;-65
2021/06/14 10:10:28;;;;;;;;;7.75;6.75;;;;;25.55;35.24;101857.09;4971190;28;46014;-65
2021/06/14 10:12:56;;;;;;;;;7.25;6.00;;;;;25.45;35.83;101845.34;4974502;28;45514;-65
2021/06/14 10:15:36;;;;;;;;;11.50;7.00;;;;;25.42;35.59;101859.03;4973000;28;45393;-64
2021/06/14 10:18:04;;;;;;;;;7.75;7.25;;;;;25.43;34.85;101861.63;4977844;28;45506;-65
2021/06/14 10:20:31;;;;;;;;;5.25;5.00;;;;;25.50;35.77;101854.78;4977857;28;45388;-65
2021/06/14 10:22:59;;;;;;;;;4.25;4.25;;;;;25.40;36.05;101845.72;4979386;28;45377;-64
2021/06/14 10:25:26;;;;;;;;;6.50;6.25;;;;;25.15;35.67;101850.34;4967677;28;45436;-65
2021/06/14 10:27:53;;;;;;;;;5.25;5.00;;;;;25.04;36.14;101848.47;4978786;28;46270;-65
2021/06/14 10:30:20;;;;;;;;;5.00;4.75;;;;;25.04;36.11;101846.66;4979249;28;45724;-65
2021/06/14 10:32:46;;;;;;;;;4.50;4.50;;;;;25.17;34.01;101843.88;4977988;28;45501;-65
2021/06/14 10:35:14;;;;;;;;;5.75;5.00;;;;;25.37;33.75;101862.97;4976486;28;45451;-65
2021/06/14 10:37:44;;;;;;;;;6.00;4.75;;;;;25.51;32.86;101847.53;4974826;28;47434;-65
2021/06/14 10:40:13;;;;;;;;;3.50;3.50;;;;;25.58;30.85;101856.84;4977974;28;45631;-65
2021/06/14 10:42:40;;;;;;;;;5.00;5.00;;;;;25.61;34.12;101851.22;4976679;28;45391;-65
2021/06/14 10:45:07;;;;;;;;;3.00;3.00;;;;;25.54;30.14;101850.00;4966237;28;45302;-65
2021/06/14 10:47:33;;;;;;;;;6.25;4.75;;;;;25.69;31.34;101849.72;4972995;28;46293;-67
2021/06/14 10:49:58;;;;;;;;;4.50;4.50;;;;;25.88;30.88;101845.59;4977158;28;45356;-64
2021/06/14 10:52:24;;;;;;;;;3.25;3.25;;;;;26.00;30.30;101849.13;4974567;28;45528;-65
2021/06/14 10:54:49;;;;;;;;;4.50;4.50;;;;;26.08;30.38;101843.94;4974179;28;45496;-64
2021/06/14 10:57:15;;;;;;;;;4.00;4.00;;;;;26.10;32.61;101838.44;4977484;28;45392;-65
2021/06/14 10:59:41;;;;;;;;;3.50;3.00;;;;;26.05;31.52;101846.91;4973211;28;45405;-64
2021/06/14 11:02:09;;;;;;;;;5.50;3.75;;;;;26.05;32.35;101845.03;4976369;28;45659;-65
2021/06/14 11:04:35;;;;;;;;;4.50;4.50;;;;;26.06;30.35;101849.47;4979773;28;45316;-65
2021/06/14 11:07:01;;;;;;;;;4.75;4.75;;;;;26.09;30.61;101842.97;4981326;28;46551;-65
2021/06/14 11:09:41;;;;;;;;;6.00;5.00;;;;;26.09;32.69;101842.09;4987840;28;45636;-64
2021/06/14 11:12:08;;;;;;;;;4.00;4.00;;;;;26.08;29.16;101838.53;4981998;28;45363;-64
2021/06/14 11:14:35;;;;;;;;;6.00;6.00;;;;;26.11;29.18;101845.53;4971012;28;45443;-65
2021/06/14 11:17:17;;;;;;;;;3.00;3.00;;;;;26.18;28.74;101842.19;4970616;28;47273;-65
2021/06/14 11:19:45;;;;;;;;;5.50;4.75;;;;;26.32;28.89;101842.91;4972727;28;45925;-65
2021/06/14 11:22:11;;;;;;;;;5.25;4.00;;;;;26.45;30.58;101839.16;4979337;28;45226;-65
2021/06/14 11:24:39;;;;;;;;;6.25;5.25;;;;;26.35;31.69;101831.00;4991162;28;45431;-65
2021/06/14 11:27:09;;;;;;;;;4.00;4.00;;;;;26.18;28.99;101833.25;4972617;28;46315;-65
2021/06/14 11:29:46;;;;;;;;;6.00;4.00;;;;;26.16;31.51;101830.69;4979563;28;45439;-64
2021/06/14 11:32:18;;;;;;;;;4.50;4.00;;;;;25.87;31.70;101836.66;4978710;28;45412;-64
2021/06/14 11:34:45;;;;;;;;;5.25;4.00;;;;;25.57;32.25;101839.00;4981778;28;45359;-64
2021/06/14 11:37:11;;;;;;;;;4.50;4.50;;;;;25.54;29.37;101831.16;4975688;28;48137;-64
2021/06/14 11:39:38;;;;;;;;;5.00;5.00;;;;;25.65;30.44;101827.59;4979094;28;45484;-64
2021/06/14 11:42:20;;;;;;;;;6.75;5.00;;;;;25.81;30.74;101821.84;4980090;28;45467;-64
2021/06/14 11:45:07;;;;;;;;;4.50;4.50;;;;;25.95;29.00;101815.31;4982518;28;45439;-64
2021/06/14 11:47:39;;;;;;;;;5.25;5.00;;;;;26.14;28.33;101816.50;4975390;28;45726;-65
2021/06/14 11:50:07;;;;;;;;;4.50;4.00;;;;;26.32;27.42;101810.56;4968718;28;45780;-64
2021/06/14 11:52:35;;;;;;;;;6.00;4.75;;;;;26.55;27.59;101812.28;4982249;28;45319;-64
2021/06/14 11:55:12;;;;;;;;;4.50;4.50;;;;;26.73;27.50;101808.03;4964466;28;45406;-64
2021/06/14 11:57:38;;;;;;;;;4.50;4.00;;;;;26.83;26.85;101810.81;4974860;28;45450;-64
2021/06/14 12:00:08;;;;;;;;;3.25;3.25;;;;;26.97;27.83;101793.41;4979882;28;45571;-64
2021/06/14 12:02:33;;;;;;;;;4.25;3.75;;;;;27.12;27.70;101797.63;4967055;28;45380;-64
2021/06/14 12:05:02;;;;;;;;;4.75;3.25;;;;;27.18;26.91;101800.66;4978034;28;45701;-64
2021/06/14 12:07:35;;;;;;;;;5.00;3.75;;;;;27.25;26.73;101787.47;4976773;28;48271;-64
2021/06/14 12:10:14;;;;;;;;;5.00;4.50;;;;;27.29;28.75;101788.03;4976181;28;45739;-64
2021/06/14 12:12:41;;;;;;;;;4.50;4.50;;;;;27.17;24.46;101790.84;4978902;28;45440;-64
2021/06/14 12:15:11;;;;;;;;;4.50;4.00;;;;;27.28;26.02;101789.91;4983100;28;45519;-64
2021/06/14 12:17:42;;;;;;;;;4.00;4.00;;;;;27.38;26.93;101784.53;4965949;28;45373;-64
2021/06/14 12:20:09;;;;;;;;;5.00;5.00;;;;;27.29;25.01;101780.78;4961468;28;45258;-65
2021/06/14 12:22:35;;;;;;;;;3.00;3.00;;;;;27.19;26.88;101774.50;4976357;28;45323;-64
2021/06/14 12:25:05;;;;;;;;;4.75;3.25;;;;;27.02;28.94;101775.97;4977747;28;45451;-64
2021/06/14 12:27:31;;;;;;;;;5.00;5.00;;;;;26.72;28.67;101778.50;4976311;28;46825;-64
2021/06/14 12:30:01;;;;;;;;;5.25;4.00;;;;;26.39;29.05;101767.78;4976679;28;45458;-64
2021/06/14 12:32:29;;;;;;;;;3.25;3.25;;;;;26.16;29.99;101757.97;4971428;28;45415;-64
2021/06/14 12:35:02;;;;;;;;;3.50;2.75;;;;;26.05;27.75;101760.72;4977898;28;45245;-64
2021/06/14 12:37:28;;;;;;;;;4.50;3.00;;;;;26.00;29.05;101760.25;4980539;28;46114;-64
2021/06/14 12:40:07;;;;;;;;;6.00;5.00;;;;;26.01;30.32;101756.53;4979823;28;45553;-64
2021/06/14 12:42:34;;;;;;;;;7.00;4.00;;;;;25.82;29.76;101748.19;4975500;28;45799;-64
2021/06/14 12:45:11;;;;;;;;;5.00;4.75;;;;;25.76;30.07;101745.97;4979432;28;45730;-64
2021/06/14 12:47:48;;;;;;;;;3.75;3.25;;;;;25.71;30.29;101743.66;4979982;28;47370;-64
2021/06/14 12:50:22;;;;;;;;;4.25;4.25;;;;;25.68;29.21;101745.75;4979183;28;45630;-64
2021/06/14 12:52:47;;;;;;;;;3.00;3.00;;;;;25.77;28.39;101747.72;4964978;28;45301;-64
2021/06/14 12:55:18;;;;;;;;;4.25;3.25;;;;;25.99;29.59;101742.34;4977774;28;45369;-64
2021/06/14 12:57:43;;;;;;;;;4.00;4.00;;;;;25.83;30.96;101739.09;4980119;28;46485;-64
2021/06/14 13:00:15;;;;;;;;;3.00;2.00;;;;;25.68;31.11;101735.81;4975541;28;45316;-64
2021/06/14 13:02:42;;;;;;;;;5.00;5.00;;;;;25.43;31.26;101732.47;4976500;28;45432;-64
2021/06/14 13:05:13;;;;;;;;;5.75;5.75;;;;;25.15;30.61;101732.88;4967806;28;45516;-64
2021/06/14 13:07:38;;;;;;;;;3.00;3.00;;;;;25.13;31.33;101731.28;4968749;28;47601;-64
2021/06/14 13:10:12;;;;;;;;;4.75;4.00;;;;;25.12;31.51;101732.25;4966150;28;45429;-64
2021/06/14 13:12:39;;;;;;;;;4.50;4.50;;;;;25.21;29.12;101720.72;4973425;28;45744;-64
2021/06/14 13:15:14;;;;;;;;;4.75;4.75;;;;;25.48;30.08;101724.84;4986669;28;45475;-64
2021/06/14 13:17:49;;;;;;;;;4.00;4.00;;;;;25.77;28.42;101723.47;4979506;28;45525;-64
2021/06/14 13:20:20;;;;;;;;;5.00;5.00;;;;;26.11;28.33;101719.78;4979080;28;45463;-64
2021/06/14 13:22:45;;;;;;;;;4.00;4.00;;;;;26.39;27.21;101720.13;4973415;28;45494;-65
2021/06/14 13:25:11;;;;;;;;;6.00;5.50;;;;;26.64;27.53;101717.19;4968940;28;45380;-64
2021/06/14 13:27:47;;;;;;;;;6.00;5.25;;;;;26.89;27.22;101712.31;4976053;28;47324;-64
2021/06/14 13:30:13;;;;;;;;;4.50;4.50;;;;;26.97;28.05;101709.78;4968604;28;45329;-64
2021/06/14 13:33:03;;;;;;;;;5.00;5.00;;;;;27.02;27.61;101705.81;4979591;28;45477;-64
2021/06/14 13:35:28;;;;;;;;;5.25;5.00;;;;;27.13;27.37;101713.88;4969698;28;45589;-64
2021/06/14 13:37:54;;;;;;;;;4.75;4.75;;;;;27.34;27.57;101715.59;4967247;28;46879;-64
2021/06/14 13:40:22;;;;;;;;;3.50;3.50;;;;;27.59;26.14;101715.22;4976173;28;45616;-64
2021/06/14 13:42:55;;;;;;;;;4.00;4.00;;;;;27.79;25.47;101699.94;4973956;28;45403;-65
2021/06/14 13:45:36;;;;;;;;;4.25;4.25;;;;;27.97;25.74;101707.31;4969889;28;45563;-64
2021/06/14 13:48:07;;;;;;;;;4.00;4.00;;;;;28.08;27.74;101699.06;4972523;28;47279;-65
2021/06/14 13:50:47;;;;;;;;;4.00;4.00;;;;;28.11;27.24;101695.22;4975116;28;45360;-64
2021/06/14 13:53:27;;;;;;;;;4.00;4.00;;;;;27.79;26.52;101690.97;4977589;28;45235;-64
2021/06/14 13:56:00;;;;;;;;;6.00;5.00;;;;;27.81;27.61;101691.66;4965352;28;45400;-64
2021/06/14 13:58:31;;;;;;;;;6.25;5.00;;;;;27.83;26.39;101689.72;4976730;28;45712;-64
2021/06/14 14:01:08;;;;;;;;;5.25;5.25;;;;;27.95;26.49;101693.94;4971681;28;45633;-65
2021/06/14 14:03:34;;;;;;;;;4.25;4.25;;;;;27.78;28.63;101687.38;4966746;28;45308;-65
2021/06/14 14:05:59;;;;;;;;;4.25;4.25;;;;;27.28;28.45;101687.34;4969628;28;45399;-64
2021/06/14 14:08:24;;;;;;;;;4.75;4.75;;;;;26.87;29.49;101690.03;4975156;28;46598;-64
2021/06/14 14:10:51;;;;;;;;;6.50;4.75;;;;;26.34;29.88;101687.34;4978934;28;45365;-64
2021/06/14 14:13:18;;;;;;;;;4.25;4.00;;;;;26.03;30.14;101693.50;4978964;28;45589;-64
2021/06/14 14:15:44;;;;;;;;;5.00;4.25;;;;;25.96;30.65;101693.16;4968398;28;45379;-64
2021/06/14 14:18:10;;;;;;;;;4.00;4.00;;;;;26.01;28.10;101686.53;4979231;28;46435;-64
2021/06/14 14:20:35;;;;;;;;;5.00;4.50;;;;;26.22;29.31;101683.88;4978766;28;45598;-64
2021/06/14 14:23:01;;;;;;;;;6.25;5.50;;;;;26.39;28.10;101686.94;4975158;28;45460;-65
2021/06/14 14:25:27;;;;;;;;;7.50;5.00;;;;;26.69;26.71;101682.59;4978940;28;45374;-64
2021/06/14 14:27:53;;;;;;;;;5.00;5.00;;;;;27.04;26.39;101675.03;4980888;28;47121;-64
2021/06/14 14:30:26;;;;;;;;;3.00;3.00;;;;;27.31;28.47;101672.72;4960482;28;45430;-64
2021/06/14 14:32:52;;;;;;;;;4.00;4.00;;;;;27.42;28.56;101660.94;4971124;28;45284;-65
2021/06/14 14:35:37;;;;;;;;;7.00;6.00;;;;;27.49;26.25;101667.47;4979983;28;45306;-65
2021/06/14 14:38:03;;;;;;;;;6.25;5.75;;;;;27.50;28.27;101662.94;4975311;28;47354;-64
2021/06/14 14:40:34;;;;;;;;;5.25;5.25;;;;;27.37;26.86;101669.47;4982267;28;45607;-65
2021/06/14 14:43:00;;;;;;;;;5.50;5.50;;;;;27.53;25.88;101668.06;4972982;28;45453;-65
2021/06/14 14:45:26;;;;;;;;;5.00;5.00;;;;;27.82;26.18;101661.84;4977303;28;45535;-65
2021/06/14 14:47:58;;;;;;;;;4.25;4.25;;;;;28.05;27.44;101658.81;4972246;28;45402;-64
2021/06/14 14:50:25;;;;;;;;;5.50;4.75;;;;;28.12;25.96;101661.81;4979438;28;45461;-64
2021/06/14 14:52:51;;;;;;;;;4.25;4.25;;;;;28.24;27.20;101659.78;4985909;28;45217;-64
2021/06/14 14:55:27;;;;;;;;;6.50;5.25;;;;;28.15;25.88;101652.56;4974499;28;45554;-64
2021/06/14 14:57:55;;;;;;;;;5.00;3.25;;;;;28.13;27.33;101651.81;4981673;28;46340;-64
2021/06/14 15:00:22;;;;;;;;;4.75;4.25;;;;;27.99;24.65;101651.28;4979561;28;45289;-65
2021/06/14 15:02:47;;;;;;;;;3.25;3.25;;;;;28.10;26.27;101650.28;4982533;28;45257;-64
2021/06/14 15:05:13;;;;;;;;;6.00;4.50;;;;;28.14;27.52;101653.53;4976166;28;45409;-65
2021/06/14 15:07:41;;;;;;;;;7.00;5.00;;;;;27.75;27.23;101655.28;4982050;28;45559;-64
2021/06/14 15:10:07;;;;;;;;;6.25;6.25;;;;;27.67;25.36;101647.03;4971776;28;45475;-64
2021/06/14 15:12:32;;;;;;;;;8.75;5.75;;;;;27.78;26.28;101649.56;4970715;28;45252;-64
2021/06/14 15:14:58;;;;;;;;;5.25;5.25;;;;;28.03;27.14;101650.00;4982877;28;45223;-65
2021/06/14 15:17:24;;;;;;;;;6.75;4.75;;;;;27.85;28.07;101645.31;4975004;28;45418;-65
2021/06/14 15:19:49;;;;;;;;;7.50;7.00;;;;;27.68;26.21;101640.63;4978948;28;45349;-64
2021/06/14 15:22:18;;;;;;;;;4.00;4.00;;;;;27.73;25.50;101628.41;4976394;28;46270;-64
2021/06/14 15:24:44;;;;;;;;;6.75;4.00;;;;;27.87;25.79;101623.59;4982606;28;45966;-64
2021/06/14 15:27:09;;;;;;;;;4.75;4.75;;;;;28.21;25.21;101627.63;4981648;28;46509;-65
2021/06/14 15:29:34;;;;;;;;;5.00;5.00;;;;;28.55;24.03;101628.13;4975206;28;45262;-65
2021/06/14 15:32:01;;;;;;;;;4.25;4.00;;;;;28.79;25.27;101624.03;4971075;28;45422;-65
2021/06/14 15:34:26;;;;;;;;;5.00;5.00;;;;;28.81;26.32;101622.03;4978971;28;45281;-65
2021/06/14 15:36:52;;;;;;;;;5.00;5.00;;;;;28.53;24.46;101626.41;4976669;28;45181;-65
2021/06/14 15:39:17;;;;;;;;;5.75;5.75;;;;;28.48;27.36;101619.75;4980798;28;45244;-65
2021/06/14 15:41:43;;;;;;;;;4.00;4.00;;;;;28.24;26.85;101621.94;4971995;28;45444;-65
2021/06/14 15:44:08;;;;;;;;;7.00;4.75;;;;;28.09;26.34;101617.00;4971705;28;45517;-65
2021/06/14 15:46:33;;;;;;;;;2.75;2.75;;;;;28.16;25.16;101621.81;4977437;28;46305;-65
2021/06/14 15:49:00;;;;;;;;;3.00;3.00;;;;;28.35;24.75;101612.78;4981893;28;45233;-65
2021/06/14 15:51:27;;;;;;;;;5.00;5.00;;;;;28.50;24.74;101618.59;4980484;28;45348;-65
2021/06/14 15:53:54;;;;;;;;;4.00;4.00;;;;;28.64;24.51;101611.84;4981773;28;45898;-65
2021/06/14 15:56:19;;;;;;;;;4.00;4.00;;;;;28.77;23.36;101605.22;4982377;28;46451;-65
2021/06/14 15:58:44;;;;;;;;;5.25;5.25;;;;;28.95;24.78;101618.81;4980196;28;45911;-65
2021/06/14 16:01:10;;;;;;;;;6.00;5.50;;;;;29.06;25.37;101614.19;4975665;28;45153;-65
2021/06/14 16:03:37;;;;;;;;;5.75;5.50;;;;;28.95;25.90;101607.97;4963624;28;45159;-65
2021/06/14 16:06:03;;;;;;;;;4.25;4.00;;;;;28.72;25.09;101613.78;4981274;28;45459;-65
2021/06/14 16:08:29;;;;;;;;;3.75;3.75;;;;;28.62;26.56;101602.19;4980430;28;45561;-65
2021/06/14 16:10:54;;;;;;;;;7.00;6.00;;;;;28.55;24.21;101598.41;4978858;28;45353;-65
2021/06/14 16:13:20;;;;;;;;;5.50;5.00;;;;;28.61;24.91;101592.38;4979899;28;45585;-65
2021/06/14 16:15:46;;;;;;;;;10.25;5.00;;;;;28.71;25.91;101601.28;4973743;28;45288;-65
2021/06/14 16:18:12;;;;;;;;;4.00;4.00;;;;;28.71;26.13;101595.03;4978416;28;45519;-65
2021/06/14 16:20:38;;;;;;;;;4.50;4.00;;;;;28.71;26.33;101605.84;4977899;28;45373;-65
2021/06/14 16:23:03;;;;;;;;;5.00;5.00;;;;;28.63;26.85;101602.03;4971149;28;45527;-67
2021/06/14 16:25:30;;;;;;;;;3.75;3.00;;;;;28.40;26.28;101605.09;4976691;28;45404;-67
2021/06/14 16:27:56;;;;;;;;;4.25;4.25;;;;;28.33;26.49;101603.13;4972141;28;45410;-67
2021/06/14 16:30:22;;;;;;;;;6.00;5.00;;;;;28.30;26.56;101605.13;4978303;28;45319;-67
2021/06/14 16:32:49;;;;;;;;;3.00;3.00;;;;;28.26;27.13;101601.03;4965657;28;45517;-67
2021/06/14 16:35:15;;;;;;;;;4.75;4.75;;;;;28.23;26.86;101604.00;4970089;28;45673;-67